Time;durP1;ratioP1;P1;durP2;ratioP2;P2;SDS_P1;SDS_P2;PMS_P1;PMS_P2;Temp;Humidity;BMP_temperature;BMP_pressure;BME280_temperature;BME280_humidity;BME280_pressure;Samples;Min_cycle;Max_cycle;Signal;HPM_P1;HPM_P2
2022/08/03 04:20:25;;;;;;;0.20;0.20;;;;;;;21.85;52.26;101216.63;5085131;27;1401302;-83
2022/08/03 04:22:50;;;;;;;0.10;0.10;;;;;;;22.01;52.02;101238.00;5072637;28;20040;-83
2022/08/03 04:25:18;;;;;;;0.10;0.10;;;;;;;22.48;51.17;101233.00;5073046;28;20405;-84
2022/08/03 04:27:43;;;;;;;0.10;0.10;;;;;;;22.68;50.99;101233.00;5092298;28;20061;-88
2022/08/03 04:30:09;;;;;;;0.10;0.10;;;;;;;22.70;51.21;101239.81;5091093;28;20039;-84
2022/08/03 04:32:35;;;;;;;0.10;0.10;;;;;;;22.61;51.15;101219.53;5109594;28;20024;-83
2022/08/03 04:35:00;;;;;;;0.10;0.10;;;;;;;22.71;50.88;101236.19;5126139;28;20114;-83
2022/08/03 04:37:37;;;;;;;0.10;0.10;;;;;;;22.87;51.22;101251.50;5106687;28;20104;-81
2022/08/03 04:40:04;;;;;;;0.10;0.10;;;;;;;23.11;50.57;101251.91;5106776;28;20028;-83
2022/08/03 04:42:30;;;;;;;0.10;0.10;;;;;;;23.24;50.38;101248.13;5089901;28;20027;-83
2022/08/03 04:44:55;;;;;;;0.10;0.10;;;;;;;23.38;50.28;101251.16;5119324;28;20028;-82
2022/08/03 04:47:21;;;;;;;0.10;0.10;;;;;;;23.35;49.91;101255.91;5105969;28;20486;-83
2022/08/03 04:49:46;;;;;;;0.17;0.17;;;;;;;23.48;49.86;101254.59;5124127;28;20059;-86
2022/08/03 04:52:12;;;;;;;0.10;0.10;;;;;;;23.47;49.99;101260.84;5089137;28;20055;-86
2022/08/03 04:54:41;;;;;;;0.10;0.10;;;;;;;23.52;49.81;101263.09;5122666;28;20400;-82
2022/08/03 04:57:07;;;;;;;0.20;0.20;;;;;;;23.46;50.35;101250.44;5107180;28;20032;-84
2022/08/03 04:59:33;;;;;;;0.10;0.10;;;;;;;23.80;49.62;101260.53;5108224;28;20034;-83
2022/08/03 05:01:58;;;;;;;0.10;0.10;;;;;;;23.87;49.90;101258.94;5107448;28;20027;-86
2022/08/03 05:04:23;;;;;;;0.17;0.17;;;;;;;23.88;49.87;101274.66;5125045;28;20081;-86
2022/08/03 05:06:49;;;;;;;0.10;0.10;;;;;;;23.68;49.59;101236.06;5101994;28;20032;-82
2022/08/03 05:09:14;;;;;;;0.43;0.43;;;;;;;23.88;49.51;101271.19;5120369;28;20094;-83
2022/08/03 05:11:40;;;;;;;0.10;0.10;;;;;;;24.09;49.23;101282.38;5120071;28;20054;-84
2022/08/03 05:14:05;;;;;;;0.20;0.20;;;;;;;24.09;49.57;101278.88;5119683;28;20027;-83
2022/08/03 05:16:31;;;;;;;0.10;0.10;;;;;;;24.09;49.60;101273.56;5123860;28;20036;-86
2022/08/03 05:18:56;;;;;;;0.20;0.20;;;;;;;24.18;49.13;101283.28;5107888;28;20223;-84
2022/08/03 05:21:22;;;;;;;0.17;0.17;;;;;;;23.91;49.27;101255.03;5120921;28;20392;-86
2022/08/03 05:23:47;;;;;;;0.17;0.17;;;;;;;24.01;49.16;101269.88;5118154;28;20116;-88
2022/08/03 05:26:13;;;;;;;0.65;0.30;;;;;;;24.14;49.26;101284.56;5124306;27;20495;-86
2022/08/03 05:28:39;;;;;;;0.10;0.10;;;;;;;24.17;49.63;101293.00;5108377;28;20027;-85
2022/08/03 05:31:04;;;;;;;0.13;0.13;;;;;;;24.06;49.73;101269.44;5099026;28;20107;-85
2022/08/03 05:33:30;;;;;;;0.10;0.10;;;;;;;24.27;49.24;101288.50;5111408;28;20027;-84
2022/08/03 05:35:55;;;;;;;0.13;0.13;;;;;;;24.43;49.58;101287.06;5112022;28;20063;-83
2022/08/03 05:38:21;;;;;;;0.10;0.10;;;;;;;24.44;49.26;101292.19;5111515;28;20035;-89
2022/08/03 05:40:46;;;;;;;0.25;0.25;;;;;;;24.66;49.39;101298.88;5106912;28;20130;-88
2022/08/03 05:43:12;;;;;;;0.10;0.10;;;;;;;24.76;48.59;101301.44;5094959;28;20031;-87
2022/08/03 05:45:37;;;;;;;0.57;0.50;;;;;;;24.65;49.17;101296.38;5111658;28;20452;-85
2022/08/03 05:48:05;;;;;;;0.10;0.10;;;;;;;24.72;48.83;101300.09;5092633;28;20039;-82
2022/08/03 05:50:31;;;;;;;0.20;0.20;;;;;;;24.64;49.42;101286.78;5085980;28;20097;-82
2022/08/03 05:52:56;;;;;;;0.10;0.10;;;;;;;24.85;48.74;101304.03;5091657;28;20477;-82
2022/08/03 05:55:22;;;;;;;0.17;0.17;;;;;;;24.81;48.61;101300.03;5073834;28;20530;-82
2022/08/03 05:57:47;;;;;;;0.20;0.20;;;;;;;25.09;48.67;101310.56;5092625;28;20473;-84
2022/08/03 06:00:14;;;;;;;0.30;0.30;;;;;;;25.12;48.43;101295.19;5108686;28;20828;-91
2022/08/03 06:02:39;;;;;;;0.10;0.10;;;;;;;25.24;48.17;101308.19;5075133;28;20449;-88
2022/08/03 06:05:05;;;;;;;0.20;0.20;;;;;;;25.23;48.14;101307.34;5091740;28;20043;-91
2022/08/03 06:07:31;;;;;;;0.10;0.10;;;;;;;25.25;48.51;101312.50;5090949;28;20028;-90
2022/08/03 06:09:56;;;;;;;0.30;0.30;;;;;;;25.38;48.72;101316.41;5090985;28;20030;-89
2022/08/03 06:12:22;;;;;;;0.20;0.20;;;;;;;25.46;48.56;101328.88;5093557;28;20047;-86
2022/08/03 06:14:47;;;;;;;0.10;0.10;;;;;;;25.59;48.21;101328.47;5075677;28;20027;-83
2022/08/03 06:17:13;;;;;;;0.30;0.30;;;;;;;25.51;48.63;101320.47;5110689;28;20127;-84
2022/08/03 06:19:38;;;;;;;0.25;0.25;;;;;;;25.68;48.05;101333.69;5094028;28;20568;-85
2022/08/03 06:22:04;;;;;;;0.10;0.10;;;;;;;25.92;47.64;101335.66;5085154;28;20047;-88
2022/08/03 06:24:29;;;;;;;0.10;0.10;;;;;;;25.88;47.53;101329.03;5076335;28;20500;-87
2022/08/03 06:26:55;;;;;;;0.10;0.10;;;;;;;26.01;47.20;101324.09;5091089;28;20077;-88
2022/08/03 06:29:20;;;;;;;0.10;0.10;;;;;;;26.10;46.95;101322.31;5073031;28;20189;-88
2022/08/03 06:31:46;;;;;;;0.20;0.20;;;;;;;26.25;47.07;101331.34;5090739;28;20481;-85
2022/08/03 06:34:11;;;;;;;0.25;0.25;;;;;;;26.34;46.44;101328.69;5092228;28;20024;-86
2022/08/03 06:36:37;;;;;;;0.80;0.35;;;;;;;26.42;46.60;101334.06;5097258;28;20035;-90
2022/08/03 06:39:03;;;;;;;0.20;0.20;;;;;;;26.46;46.78;101323.00;5082993;28;20028;-86
2022/08/03 06:41:28;;;;;;;0.15;0.15;;;;;;;26.64;45.34;101338.75;5093790;28;20028;-85
2022/08/03 06:43:54;;;;;;;0.10;0.10;;;;;;;26.67;46.59;101332.31;5103210;28;20038;-88
2022/08/03 06:46:19;;;;;;;0.20;0.20;;;;;;;26.62;45.60;101329.31;5107362;28;20035;-87
2022/08/03 06:48:45;;;;;;;0.20;0.20;;;;;;;26.71;45.97;101320.38;5089578;28;20032;-85
2022/08/03 06:51:10;;;;;;;0.20;0.20;;;;;;;26.75;45.19;101327.03;5076727;28;20024;-83
2022/08/03 06:53:36;;;;;;;0.20;0.20;;;;;;;26.85;45.79;101322.41;5109942;28;20056;-83
2022/08/03 06:56:03;;;;;;;0.20;0.20;;;;;;;26.88;46.17;101312.28;5093215;28;20076;-89
2022/08/03 06:58:29;;;;;;;0.20;0.20;;;;;;;27.08;46.19;101328.75;5108456;28;20046;-84
2022/08/03 07:00:54;;;;;;;0.22;0.22;;;;;;;27.20;45.27;101325.75;5069307;28;20027;-85
2022/08/03 07:03:20;;;;;;;0.10;0.10;;;;;;;27.12;45.64;101316.78;5103882;28;20445;-83
2022/08/03 07:05:46;;;;;;;0.20;0.20;;;;;;;27.25;44.72;101318.13;5089022;28;20067;-88
2022/08/03 07:08:12;;;;;;;0.20;0.20;;;;;;;27.15;46.74;101297.88;5088035;28;20036;-83
2022/08/03 07:10:37;;;;;;;0.13;0.13;;;;;;;27.28;44.37;101317.78;5091819;28;20043;-84
2022/08/03 07:13:03;;;;;;;0.20;0.20;;;;;;;27.25;44.47;101321.63;5108025;28;20061;-90
2022/08/03 07:15:29;;;;;;;0.20;0.20;;;;;;;27.41;45.77;101332.22;5091054;28;20030;-84
2022/08/03 07:17:55;;;;;;;0.20;0.20;;;;;;;27.55;44.97;101329.88;5072761;28;20028;-83
2022/08/03 07:20:21;;;;;;;0.10;0.10;;;;;;;27.60;43.30;101328.38;5090572;28;20051;-95
2022/08/03 07:22:46;;;;;;;0.20;0.20;;;;;;;27.67;42.73;101331.22;5092853;28;20016;-85
2022/08/03 07:25:12;;;;;;;0.20;0.20;;;;;;;27.60;42.52;101333.69;5087523;28;20024;-90
2022/08/03 07:27:37;;;;;;;0.30;0.30;;;;;;;27.62;44.72;101329.03;5094012;28;20027;-86
2022/08/03 07:30:05;;;;;;;0.20;0.20;;;;;;;27.74;43.10;101318.09;5101558;28;20028;-87
2022/08/03 07:32:31;;;;;;;0.35;0.35;;;;;;;27.66;42.65;101311.78;5070750;28;20069;-85
2022/08/03 07:34:56;;;;;;;0.30;0.30;;;;;;;27.78;42.68;101324.72;5087172;28;20077;-89
2022/08/03 07:37:22;;;;;;;0.40;0.40;;;;;;;27.79;42.63;101295.28;5088627;28;20036;-86
2022/08/03 07:39:47;;;;;;;0.20;0.20;;;;;;;28.22;42.35;101341.00;5086798;28;20024;-86
2022/08/03 07:42:13;;;;;;;0.35;0.35;;;;;;;28.40;41.98;101330.97;5087972;28;20035;-95
2022/08/03 07:44:38;;;;;;;0.20;0.20;;;;;;;28.55;40.89;101339.03;5073596;28;20020;-91
2022/08/03 07:47:04;;;;;;;0.55;0.55;;;;;;;28.62;40.43;101340.00;5088120;28;20032;-83
2022/08/03 07:49:30;;;;;;;0.55;0.30;;;;;;;28.68;40.66;101339.28;5088978;28;20061;-84
2022/08/03 07:54:47;;;;;;;0.20;0.20;;;;;;;28.76;40.27;101333.91;5057804;28;20032;-84
2022/08/03 07:57:12;;;;;;;0.10;0.10;;;;;;;28.67;38.99;101323.50;5087549;28;20413;-85
2022/08/03 07:59:38;;;;;;;0.20;0.20;;;;;;;28.89;39.43;101340.50;5090363;28;20028;-89
2022/08/03 08:02:05;;;;;;;0.20;0.20;;;;;;;28.90;39.24;101315.53;5071731;28;20039;-82
2022/08/03 08:04:31;;;;;;;0.10;0.10;;;;;;;29.16;39.21;101339.16;5071921;28;20477;-84
2022/08/03 08:06:56;;;;;;;0.50;0.40;;;;;;;29.13;38.75;101303.03;5090214;28;20089;-88
2022/08/03 08:09:22;;;;;;;0.25;0.25;;;;;;;29.45;38.25;101325.88;5070992;28;20173;-85
2022/08/03 08:11:48;;;;;;;0.30;0.30;;;;;;;29.60;37.98;101337.44;5087522;28;20032;-81
2022/08/03 08:14:14;;;;;;;0.20;0.20;;;;;;;29.66;37.46;101339.34;5086659;28;20169;-83
2022/08/03 08:16:39;;;;;;;0.20;0.20;;;;;;;29.69;38.04;101339.00;5087002;28;20028;-83
2022/08/03 08:19:05;;;;;;;0.20;0.20;;;;;;;29.68;37.90;101320.50;5088708;28;20056;-82
2022/08/03 08:21:30;;;;;;;0.25;0.25;;;;;;;29.83;37.96;101315.19;5087992;28;20074;-82
2022/08/03 08:23:56;;;;;;;0.25;0.25;;;;;;;30.11;36.96;101347.41;5106417;28;20489;-82
2022/08/03 08:26:21;;;;;;;0.30;0.30;;;;;;;29.89;37.96;101328.63;5108923;28;20100;-83
2022/08/03 08:28:47;;;;;;;0.20;0.20;;;;;;;30.26;37.35;101350.88;5108607;28;20073;-84
2022/08/03 08:31:12;;;;;;;0.20;0.20;;;;;;;30.51;37.28;101349.53;5109254;28;20028;-84
2022/08/03 08:33:38;;;;;;;0.10;0.10;;;;;;;30.50;36.68;101342.53;5109231;28;20020;-86
2022/08/03 08:36:03;;;;;;;0.38;0.38;;;;;;;30.52;36.27;101348.53;5109597;28;20035;-88
2022/08/03 08:38:29;;;;;;;0.20;0.20;;;;;;;30.73;35.95;101346.91;5090695;28;20035;-86
2022/08/03 08:40:54;;;;;;;0.20;0.20;;;;;;;30.65;35.86;101342.53;5073800;28;20024;-86
2022/08/03 08:43:20;;;;;;;0.20;0.20;;;;;;;30.72;35.90;101342.59;5106704;28;20070;-86
2022/08/03 08:45:48;;;;;;;0.20;0.20;;;;;;;30.65;35.87;101333.69;5092153;28;20019;-84
2022/08/03 08:48:13;;;;;;;0.52;0.47;;;;;;;30.67;35.91;101326.31;5092379;28;20408;-85
2022/08/03 08:50:39;;;;;;;0.30;0.30;;;;;;;30.78;35.52;101328.50;5091694;28;20507;-84
2022/08/03 08:53:06;;;;;;;0.47;0.30;;;;;;;30.75;35.66;101336.88;5091538;28;20994;-85
2022/08/03 08:55:31;;;;;;;0.30;0.30;;;;;;;30.84;35.19;101317.84;5075156;28;20438;-85
2022/08/03 08:58:00;;;;;;;0.20;0.20;;;;;;;30.93;35.33;101328.41;5108720;28;20116;-86
2022/08/03 09:00:25;;;;;;;0.50;0.28;;;;;;;31.06;35.46;101321.31;5098243;28;20042;-83
2022/08/03 09:02:51;;;;;;;0.20;0.20;;;;;;;31.24;35.19;101315.56;5087380;28;20028;-84
2022/08/03 09:05:17;;;;;;;0.20;0.20;;;;;;;31.38;34.12;101311.16;5087263;28;20020;-83
2022/08/03 09:07:43;;;;;;;0.28;0.28;;;;;;;31.48;33.58;101313.47;5092503;28;20030;-84
2022/08/03 09:10:10;;;;;;;0.22;0.22;;;;;;;31.34;34.43;101309.88;5073706;28;20056;-83
2022/08/03 09:12:43;;;;;;;0.25;0.25;;;;;;;31.37;34.15;101313.00;5091632;28;20042;-84
2022/08/03 09:15:22;;;;;;;0.40;0.40;;;;;;;31.64;33.25;101313.16;5056776;28;20028;-84
2022/08/03 09:17:48;;;;;;;0.20;0.20;;;;;;;31.35;33.58;101308.84;5074647;28;20039;-84
2022/08/03 09:20:14;;;;;;;0.20;0.20;;;;;;;31.39;33.65;101308.28;5091144;28;20132;-85
2022/08/03 09:22:56;;;;;;;0.20;0.20;;;;;;;31.49;33.28;101315.13;5090517;28;20067;-85
2022/08/03 09:25:34;;;;;;;;;;;;;;;31.72;33.01;101315.66;5091982;28;20118;-85
2022/08/03 09:28:10;;;;;;;0.40;0.40;;;;;;;31.53;32.39;101303.81;5090608;28;19955;-84
2022/08/03 09:30:36;;;;;;;0.20;0.20;;;;;;;31.53;32.82;101294.97;5090901;28;20028;-89
2022/08/03 09:33:03;;;;;;;0.30;0.22;;;;;;;31.77;32.65;101307.09;5074259;28;20099;-83
2022/08/03 09:35:29;;;;;;;0.20;0.20;;;;;;;32.09;32.20;101306.41;5074136;28;20034;-85
2022/08/03 09:38:14;;;;;;;0.43;0.40;;;;;;;31.95;32.60;101288.63;5073162;28;20031;-83
2022/08/03 09:40:40;;;;;;;0.20;0.20;;;;;;;32.11;32.36;101292.81;5091916;28;20085;-83
2022/08/03 09:43:09;;;;;;;0.35;0.35;;;;;;;32.27;32.47;101299.69;5059936;28;20078;-85
2022/08/03 09:45:35;;;;;;;0.28;0.28;;;;;;;32.42;31.31;101278.94;5083437;28;20545;-85
2022/08/03 09:48:23;;;;;;;0.20;0.20;;;;;;;32.44;31.69;101296.44;5074575;28;20035;-91
2022/08/03 09:50:49;;;;;;;0.30;0.30;;;;;;;32.74;31.88;101288.91;5091430;28;20119;-92
2022/08/03 09:53:14;;;;;;;0.38;0.38;;;;;;;32.86;31.41;101285.63;5092120;28;20119;-87
2022/08/03 09:55:49;;;;;;;0.32;0.32;;;;;;;33.15;31.03;101285.22;5058101;28;20586;-83
2022/08/03 09:58:15;;;;;;;0.30;0.30;;;;;;;33.00;29.45;101282.75;5074466;28;20043;-93
2022/08/03 10:00:57;;;;;;;0.28;0.28;;;;;;;33.21;30.46;101279.00;5058896;28;20063;-83
2022/08/03 10:03:22;;;;;;;;;;;;;;;33.02;30.37;101282.53;5091505;28;20048;-83
2022/08/03 10:05:48;;;;;;;0.57;0.47;;;;;;;33.22;30.31;101272.59;5096251;28;20396;-89
2022/08/03 10:08:14;;;;;;;0.20;0.20;;;;;;;33.15;30.26;101258.41;5075298;28;20028;-88
2022/08/03 10:10:44;;;;;;;0.30;0.30;;;;;;;33.49;29.68;101269.91;5074457;28;20031;-87
2022/08/03 10:13:11;;;;;;;0.20;0.20;;;;;;;33.42;30.00;101269.09;5073801;28;20020;-85
2022/08/03 10:15:38;;;;;;;0.20;0.20;;;;;;;33.62;29.59;101261.81;5073384;28;20093;-83
2022/08/03 10:18:04;;;;;;;0.40;0.40;;;;;;;33.54;29.43;101251.34;5089786;28;20032;-82
2022/08/03 10:20:30;;;;;;;0.20;0.20;;;;;;;33.71;29.58;101259.72;5073704;28;20101;-84
2022/08/03 10:22:55;;;;;;;0.20;0.20;;;;;;;33.37;29.26;101235.69;5068429;28;20054;-85
2022/08/03 10:25:21;;;;;;;0.20;0.20;;;;;;;33.68;28.73;101252.94;5108922;28;20040;-89
2022/08/03 10:27:46;;;;;;;0.50;0.38;;;;;;;33.69;28.12;101249.22;5057034;28;20109;-95
2022/08/03 10:30:12;;;;;;;0.30;0.30;;;;;;;33.93;27.58;101255.75;5057205;28;20035;-86
2022/08/03 10:33:10;;;;;;;0.35;0.35;;;;;;;33.96;27.39;101257.19;5073527;28;20052;-84
2022/08/03 10:35:35;;;;;;;0.30;0.30;;;;;;;33.94;26.31;101258.22;5046807;28;20614;-83
2022/08/03 10:38:02;;;;;;;0.45;0.40;;;;;;;34.16;26.37;101256.03;5090042;28;20032;-84
2022/08/03 10:40:30;;;;;;;0.20;0.20;;;;;;;34.28;26.22;101248.13;5073915;28;20036;-85
2022/08/03 10:42:59;;;;;;;0.28;0.28;;;;;;;34.48;25.86;101242.66;5090322;28;20028;-84
2022/08/03 10:45:26;;;;;;;0.30;0.30;;;;;;;34.70;26.44;101245.78;5073484;28;20107;-87
2022/08/03 10:47:52;;;;;;;0.40;0.40;;;;;;;34.98;26.20;101246.19;5074061;28;20459;-86
2022/08/03 10:50:17;;;;;;;0.20;0.20;;;;;;;34.92;26.45;101216.69;5056698;28;20031;-86
2022/08/03 10:53:05;;;;;;;0.40;0.40;;;;;;;34.92;26.13;101228.25;5072181;28;20444;-85
2022/08/03 10:58:37;;;;;;;0.20;0.20;;;;;;;34.88;25.61;101234.25;5089293;28;20050;-82
2022/08/03 11:01:03;;;;;;;0.30;0.30;;;;;;;34.89;25.44;101223.31;5089914;28;20088;-85
2022/08/03 11:03:29;;;;;;;0.30;0.30;;;;;;;34.95;25.23;101224.31;5088873;28;20020;-84
2022/08/03 11:06:17;;;;;;;0.20;0.20;;;;;;;34.96;25.50;101210.63;5071924;28;20061;-84
2022/08/03 11:08:43;;;;;;;0.30;0.30;;;;;;;35.19;25.56;101217.22;5089381;28;20176;-92
2022/08/03 11:11:18;;;;;;;0.43;0.40;;;;;;;35.20;25.08;101221.56;5055983;28;20024;-87
2022/08/03 11:13:57;;;;;;;0.80;0.40;;;;;;;35.06;25.20;101197.50;5090819;28;20036;-85
2022/08/03 11:16:22;;;;;;;0.30;0.30;;;;;;;34.98;25.37;101189.72;5089454;28;20477;-89
2022/08/03 11:18:55;;;;;;;0.32;0.32;;;;;;;35.18;24.87;101194.06;5088492;28;20048;-86
2022/08/03 11:21:21;;;;;;;0.30;0.30;;;;;;;35.30;24.94;101200.34;5071620;28;20035;-87
2022/08/03 11:23:47;;;;;;;0.20;0.20;;;;;;;35.39;24.38;101193.66;5071542;28;20408;-88
2022/08/03 11:26:16;;;;;;;0.20;0.20;;;;;;;35.36;24.07;101192.19;5089122;28;20028;-83
2022/08/03 11:28:45;;;;;;;0.20;0.20;;;;;;;35.45;23.26;101192.75;5088324;28;20103;-82
2022/08/03 11:31:29;;;;;;;0.20;0.20;;;;;;;35.50;23.34;101194.78;5072081;28;20020;-82
2022/08/03 11:34:08;;;;;;;0.32;0.32;;;;;;;35.41;23.45;101177.31;5088838;28;20787;-82
2022/08/03 11:37:11;;;;;;;0.40;0.40;;;;;;;35.51;23.55;101183.78;5072366;28;20020;-84
2022/08/03 11:39:42;;;;;;;0.20;0.20;;;;;;;35.55;23.35;101163.44;5089723;28;20150;-82
2022/08/03 11:42:23;;;;;;;0.32;0.32;;;;;;;35.59;23.89;101174.56;5090624;28;20034;-87
2022/08/03 11:45:08;;;;;;;0.30;0.30;;;;;;;35.56;23.96;101175.03;5110978;28;20024;-91
2022/08/03 11:47:35;;;;;;;0.30;0.30;;;;;;;35.57;23.97;101161.34;5093059;28;20066;-85
2022/08/03 11:50:01;;;;;;;0.35;0.35;;;;;;;35.67;23.76;101165.38;5109220;28;20023;-87
2022/08/03 11:52:26;;;;;;;0.38;0.30;;;;;;;35.60;23.63;101139.38;5109879;28;20038;-84
2022/08/03 11:54:52;;;;;;;0.30;0.30;;;;;;;35.77;23.84;101152.19;5109382;28;20621;-83
2022/08/03 11:57:30;;;;;;;0.60;0.47;;;;;;;35.82;23.89;101158.53;5091047;28;20027;-87
2022/08/03 11:59:56;;;;;;;0.30;0.30;;;;;;;35.90;23.80;101149.34;5108230;28;20028;-86
2022/08/03 12:02:21;;;;;;;0.32;0.32;;;;;;;35.88;23.30;101119.13;5108398;28;20034;-81
2022/08/03 12:04:59;;;;;;;0.30;0.30;;;;;;;36.11;23.36;101129.94;5108023;28;20023;-87
2022/08/03 12:07:26;;;;;;;0.30;0.30;;;;;;;36.19;22.88;101137.69;5092330;28;20419;-88
2022/08/03 12:10:11;;;;;;;0.30;0.30;;;;;;;36.13;22.70;101149.38;5110031;28;20146;-83
2022/08/03 12:12:37;;;;;;;0.30;0.30;;;;;;;36.14;22.79;101142.94;5090171;28;20638;-83
2022/08/03 12:15:03;;;;;;;0.38;0.30;;;;;;;36.10;23.08;101131.00;5092546;28;20032;-83
2022/08/03 12:17:33;;;;;;;0.30;0.30;;;;;;;36.06;23.13;101119.03;5108639;28;20031;-83
2022/08/03 12:19:59;;;;;;;0.38;0.38;;;;;;;36.20;23.02;101133.94;5091493;28;20083;-87
2022/08/03 12:22:34;;;;;;;0.30;0.30;;;;;;;36.37;21.71;101122.50;5091849;28;20051;-82
2022/08/03 12:25:00;;;;;;;0.32;0.32;;;;;;;36.48;21.86;101119.00;5072796;28;20092;-87
2022/08/03 12:27:28;;;;;;;0.40;0.40;;;;;;;36.52;22.20;101114.78;5107729;28;20227;-86
2022/08/03 12:29:54;;;;;;;0.45;0.40;;;;;;;36.52;22.45;101114.78;5090645;28;20055;-87
2022/08/03 12:32:19;;;;;;;0.35;0.35;;;;;;;36.58;21.62;101113.84;5107379;28;20114;-86
2022/08/03 12:34:46;;;;;;;0.30;0.30;;;;;;;36.29;22.17;101120.97;5090488;28;20169;-85
2022/08/03 12:37:11;;;;;;;0.20;0.20;;;;;;;35.89;22.57;101099.22;5085731;28;20059;-86
2022/08/03 12:39:37;;;;;;;0.47;0.47;;;;;;;35.69;22.93;101099.47;5092265;28;20105;-87
2022/08/03 12:42:02;;;;;;;0.38;0.30;;;;;;;35.48;22.98;101103.50;5111585;28;20031;-87
2022/08/03 12:44:34;;;;;;;0.60;0.60;;;;;;;35.43;23.14;101106.06;5095806;28;20023;-88
2022/08/03 12:47:00;;;;;;;0.30;0.30;;;;;;;35.56;23.20;101113.97;5092153;28;20028;-88
2022/08/03 12:49:26;;;;;;;0.30;0.30;;;;;;;35.53;23.15;101117.13;5087322;28;20024;-86
2022/08/03 12:51:52;;;;;;;0.47;0.38;;;;;;;35.47;23.10;101112.63;5090587;28;20121;-86
2022/08/03 12:54:22;;;;;;;0.30;0.30;;;;;;;35.49;23.19;101105.16;5114240;28;20036;-88
2022/08/03 12:57:01;;;;;;;0.40;0.40;;;;;;;35.43;23.68;101098.00;5094216;28;20050;-85
2022/08/03 12:59:41;;;;;;;0.30;0.30;;;;;;;35.32;23.73;101098.75;5091885;28;20032;-83
2022/08/03 13:05:28;;;;;;;0.30;0.30;;;;;;;34.98;24.78;101090.25;5096053;28;20085;-82
2022/08/03 13:07:54;;;;;;;0.40;0.40;;;;;;;35.05;24.27;101093.69;5075836;28;20447;-84
2022/08/03 13:10:32;;;;;;;0.30;0.30;;;;;;;34.79;24.53;101088.59;5075835;28;20056;-83
2022/08/03 13:12:59;;;;;;;0.30;0.30;;;;;;;34.95;24.54;101088.03;5092694;28;20024;-86
2022/08/03 13:15:27;;;;;;;0.30;0.30;;;;;;;34.63;23.24;101079.25;5075408;28;20028;-82
2022/08/03 13:17:54;;;;;;;0.30;0.30;;;;;;;34.55;23.26;101092.16;5075940;28;20035;-90
2022/08/03 13:20:20;;;;;;;0.22;0.22;;;;;;;34.55;23.11;101081.41;5075426;28;20048;-81
2022/08/03 13:22:46;;;;;;;0.30;0.30;;;;;;;34.50;23.19;101077.50;5093983;28;20474;-81
2022/08/03 13:25:12;;;;;;;0.40;0.30;;;;;;;34.56;22.95;101072.31;5075329;28;20050;-82
2022/08/03 13:27:38;;;;;;;0.22;0.20;;;;;;;34.51;22.78;101072.94;5092391;28;20071;-85
2022/08/03 13:30:04;;;;;;;0.30;0.30;;;;;;;34.52;22.39;101071.13;5075130;28;20028;-82
2022/08/03 13:32:29;;;;;;;0.50;0.30;;;;;;;34.57;22.45;101068.56;5093420;28;20064;-87
2022/08/03 13:34:55;;;;;;;0.30;0.30;;;;;;;34.51;22.31;101067.59;5075413;28;20032;-84
2022/08/03 13:37:20;;;;;;;0.25;0.25;;;;;;;34.39;22.78;101029.91;5103761;28;20036;-81
2022/08/03 13:39:46;;;;;;;0.30;0.30;;;;;;;34.52;22.02;101046.94;5095307;28;20046;-80
2022/08/03 13:42:11;;;;;;;0.20;0.20;;;;;;;34.59;22.31;101061.09;5111842;28;20055;-83
2022/08/03 13:44:37;;;;;;;0.30;0.30;;;;;;;34.58;22.44;101049.53;5111444;28;20024;-82
2022/08/03 13:47:03;;;;;;;0.20;0.20;;;;;;;34.56;22.09;101042.75;5112167;28;20467;-84
2022/08/03 13:49:29;;;;;;;0.20;0.20;;;;;;;34.56;21.54;101026.63;5111914;28;20033;-86
2022/08/03 13:51:57;;;;;;;0.30;0.30;;;;;;;34.58;22.75;101051.41;5111138;28;20028;-82
2022/08/03 13:54:23;;;;;;;0.20;0.20;;;;;;;34.45;23.13;101058.56;5110430;28;20034;-83
2022/08/03 13:56:51;;;;;;;0.20;0.20;;;;;;;34.31;23.85;101038.19;5111818;28;20484;-82
2022/08/03 13:59:23;;;;;;;0.20;0.20;;;;;;;34.33;23.34;101046.88;5092207;28;20020;-82
2022/08/03 14:01:50;;;;;;;0.20;0.20;;;;;;;34.38;23.58;101043.53;5110502;28;20042;-84
2022/08/03 14:04:15;;;;;;;0.20;0.20;;;;;;;34.36;23.33;101032.19;5092474;28;20055;-82
2022/08/03 14:06:41;;;;;;;0.35;0.30;;;;;;;34.21;22.57;101040.56;5092354;28;20298;-84
2022/08/03 14:09:06;;;;;;;0.20;0.20;;;;;;;34.20;23.31;101034.38;5093126;28;20035;-84
2022/08/03 14:11:32;;;;;;;0.20;0.20;;;;;;;33.92;22.71;101001.81;5092443;28;20065;-86
2022/08/03 14:13:58;;;;;;;0.28;0.28;;;;;;;34.14;23.11;101031.78;5109640;28;20028;-85
2022/08/03 14:16:23;;;;;;;0.20;0.20;;;;;;;33.93;22.80;100995.41;5110237;28;20036;-86
2022/08/03 14:18:49;;;;;;;0.40;0.30;;;;;;;34.18;23.08;101038.34;5110774;28;20081;-92
2022/08/03 14:21:14;;;;;;;0.30;0.30;;;;;;;34.12;23.60;101036.53;5111927;28;20481;-83
2022/08/03 14:23:40;;;;;;;0.30;0.30;;;;;;;34.17;23.33;101031.31;5078043;28;20028;-88
2022/08/03 14:26:06;;;;;;;0.20;0.20;;;;;;;34.16;23.23;101025.13;5095336;28;20046;-92
2022/08/03 14:28:31;;;;;;;0.20;0.20;;;;;;;34.10;23.78;101030.56;5111581;28;20062;-89
2022/08/03 14:30:57;;;;;;;0.20;0.20;;;;;;;34.03;23.12;101029.81;5094451;28;20072;-86
2022/08/03 14:33:23;;;;;;;0.30;0.30;;;;;;;33.99;22.95;101029.41;5075994;28;20119;-86
2022/08/03 14:35:49;;;;;;;0.20;0.20;;;;;;;33.99;23.07;101016.00;5112049;28;20516;-88
2022/08/03 14:38:15;;;;;;;0.20;0.20;;;;;;;33.92;23.08;101008.03;5077677;28;20036;-87
2022/08/03 14:40:40;;;;;;;0.20;0.20;;;;;;;34.00;23.32;101030.22;5111389;28;20031;-87
2022/08/03 14:43:06;;;;;;;0.20;0.20;;;;;;;34.03;22.53;101022.59;5094268;28;20066;-87
2022/08/03 14:45:31;;;;;;;0.20;0.20;;;;;;;33.94;22.79;101003.25;5077531;28;20031;-87
2022/08/03 14:47:58;;;;;;;0.20;0.20;;;;;;;33.98;22.47;101016.22;5077409;28;20027;-86
2022/08/03 14:50:25;;;;;;;0.30;0.30;;;;;;;33.86;22.64;101000.81;5111720;28;20016;-87
2022/08/03 14:52:51;;;;;;;0.17;0.17;;;;;;;33.80;22.67;100992.78;5111387;28;20038;-87
2022/08/03 14:55:16;;;;;;;0.20;0.20;;;;;;;33.90;22.48;101010.06;5111390;28;20049;-87
2022/08/03 14:57:42;;;;;;;0.20;0.20;;;;;;;33.91;22.80;101005.53;5076931;28;20027;-87
2022/08/03 15:00:08;;;;;;;0.20;0.20;;;;;;;33.86;22.86;101002.66;5094102;28;20080;-87
2022/08/03 15:02:33;;;;;;;0.20;0.20;;;;;;;33.93;23.07;101006.16;5093995;28;20047;-87
2022/08/03 15:04:59;;;;;;;0.20;0.20;;;;;;;33.96;22.54;101003.03;5076847;28;20478;-88
2022/08/03 15:07:24;;;;;;;0.28;0.28;;;;;;;34.08;22.64;101012.00;5076888;28;20028;-87
2022/08/03 15:09:50;;;;;;;0.30;0.30;;;;;;;34.11;22.55;101016.09;5094060;28;20069;-87
2022/08/03 15:12:15;;;;;;;0.30;0.30;;;;;;;34.03;22.51;101008.34;5093779;28;20038;-87
2022/08/03 15:14:41;;;;;;;0.20;0.20;;;;;;;33.95;22.43;101009.44;5094307;28;20530;-87
2022/08/03 15:17:06;;;;;;;2.47;0.40;;;;;;;34.00;22.58;101008.75;5110950;28;20023;-87
2022/08/03 15:19:32;;;;;;;0.40;0.30;;;;;;;33.80;22.59;100990.94;5076678;28;20493;-88
2022/08/03 15:21:57;;;;;;;0.28;0.28;;;;;;;33.71;23.00;100989.56;5093932;28;20431;-87
2022/08/03 15:24:23;;;;;;;0.38;0.38;;;;;;;33.70;22.80;101006.69;5093949;28;20024;-87
2022/08/03 15:26:50;;;;;;;0.20;0.20;;;;;;;33.64;23.22;101004.91;5110168;28;20412;-87
2022/08/03 15:29:15;;;;;;;0.30;0.30;;;;;;;33.59;22.82;100986.75;5076957;28;20073;-87
2022/08/03 15:31:41;;;;;;;0.20;0.20;;;;;;;33.64;22.69;100995.00;5093690;28;20055;-86
2022/08/03 15:34:06;;;;;;;0.35;0.35;;;;;;;33.65;22.91;100987.78;5110346;28;20485;-88
2022/08/03 15:36:32;;;;;;;0.40;0.40;;;;;;;33.97;22.51;101004.66;5093625;28;20542;-88
2022/08/03 15:38:58;;;;;;;0.38;0.30;;;;;;;34.15;21.93;100995.81;5076562;28;20027;-88
2022/08/03 15:41:23;;;;;;;0.20;0.20;;;;;;;34.17;22.37;100993.75;5076374;28;20032;-87
2022/08/03 15:43:51;;;;;;;0.30;0.20;;;;;;;34.23;22.09;100993.69;5093476;28;20416;-86
2022/08/03 15:46:17;;;;;;;0.20;0.20;;;;;;;34.32;22.14;100999.59;5077160;28;20027;-87
2022/08/03 15:48:42;;;;;;;0.40;0.40;;;;;;;34.27;22.35;100991.38;5093323;28;20040;-87
2022/08/03 15:51:08;;;;;;;0.30;0.30;;;;;;;34.50;21.86;100993.41;5110237;28;20047;-87
2022/08/03 15:53:34;;;;;;;0.20;0.20;;;;;;;34.60;21.39;100991.03;5076521;28;20030;-87
2022/08/03 15:56:00;;;;;;;0.40;0.40;;;;;;;34.58;21.13;100995.00;5093039;28;20038;-88